sensor_id;sensor_type;location;lat;lon;timestamp;temperature;humidity
11204;DHT22;5659;49.408;11.116;2022-11-12T00:00:41;2.20;99.90
11204;DHT22;5659;49.408;11.116;2022-11-12T00:03:08;2.10;99.90
11204;DHT22;5659;49.408;11.116;2022-11-12T00:05:33;2.10;99.90
11204;DHT22;5659;49.408;11.116;2022-11-12T00:07:59;1.90;99.90
11204;DHT22;5659;49.408;11.116;2022-11-12T00:10:25;2.00;99.90
11204;DHT22;5659;49.408;11.116;2022-11-12T00:12:51;1.90;99.90
11204;DHT22;5659;49.408;11.116;2022-11-12T00:15:17;1.90;99.90
11204;DHT22;5659;49.408;11.116;2022-11-12T00:17:43;2.00;99.90
11204;DHT22;5659;49.408;11.116;2022-11-12T00:20:09;1.90;99.90
11204;DHT22;5659;49.408;11.116;2022-11-12T00:22:35;1.90;99.90
11204;DHT22;5659;49.408;11.116;2022-11-12T00:25:01;1.70;99.90
11204;DHT22;5659;49.408;11.116;2022-11-12T00:27:27;2.00;99.90
11204;DHT22;5659;49.408;11.116;2022-11-12T00:29:53;1.90;99.90
11204;DHT22;5659;49.408;11.116;2022-11-12T00:32:18;1.90;99.90
11204;DHT22;5659;49.408;11.116;2022-11-12T00:34:44;1.80;99.90
11204;DHT22;5659;49.408;11.116;2022-11-12T00:37:10;1.70;99.90
11204;DHT22;5659;49.408;11.116;2022-11-12T00:39:35;1.60;99.90
11204;DHT22;5659;49.408;11.116;2022-11-12T00:42:01;1.70;99.90
11204;DHT22;5659;49.408;11.116;2022-11-12T00:44:27;1.60;99.90
11204;DHT22;5659;49.408;11.116;2022-11-12T00:46:54;1.70;99.90
11204;DHT22;5659;49.408;11.116;2022-11-12T00:49:20;1.80;99.90
11204;DHT22;5659;49.408;11.116;2022-11-12T00:59:03;2.40;99.90
11204;DHT22;5659;49.408;11.116;2022-11-12T01:01:28;2.30;99.90
11204;DHT22;5659;49.408;11.116;2022-11-12T01:03:56;2.20;99.90
11204;DHT22;5659;49.408;11.116;2022-11-12T01:06:23;2.20;99.90
11204;DHT22;5659;49.408;11.116;2022-11-12T01:11:18;2.40;99.90
11204;DHT22;5659;49.408;11.116;2022-11-12T01:13:45;2.50;99.90
11204;DHT22;5659;49.408;11.116;2022-11-12T01:16:14;2.50;99.90
11204;DHT22;5659;49.408;11.116;2022-11-12T01:18:40;2.30;99.90
11204;DHT22;5659;49.408;11.116;2022-11-12T01:21:06;2.30;99.90
11204;DHT22;5659;49.408;11.116;2022-11-12T01:23:38;2.40;99.90
11204;DHT22;5659;49.408;11.116;2022-11-12T01:26:05;2.40;99.90
11204;DHT22;5659;49.408;11.116;2022-11-12T01:28:31;2.40;99.90
11204;DHT22;5659;49.408;11.116;2022-11-12T01:30:56;2.40;99.90
11204;DHT22;5659;49.408;11.116;2022-11-12T01:33:22;2.40;99.90
11204;DHT22;5659;49.408;11.116;2022-11-12T01:35:48;2.30;99.90
11204;DHT22;5659;49.408;11.116;2022-11-12T01:50:43;2.70;99.90
11204;DHT22;5659;49.408;11.116;2022-11-12T01:53:10;2.70;99.90
11204;DHT22;5659;49.408;11.116;2022-11-12T01:55:37;2.60;99.90
11204;DHT22;5659;49.408;11.116;2022-11-12T01:58:13;2.70;99.90
11204;DHT22;5659;49.408;11.116;2022-11-12T02:00:40;2.70;99.90
11204;DHT22;5659;49.408;11.116;2022-11-12T02:03:10;2.60;99.90
11204;DHT22;5659;49.408;11.116;2022-11-12T02:05:38;2.60;99.90
11204;DHT22;5659;49.408;11.116;2022-11-12T02:08:05;2.60;99.90
11204;DHT22;5659;49.408;11.116;2022-11-12T02:10:33;2.60;99.90
11204;DHT22;5659;49.408;11.116;2022-11-12T02:12:59;2.70;99.90
11204;DHT22;5659;49.408;11.116;2022-11-12T02:15:44;2.80;99.90
11204;DHT22;5659;49.408;11.116;2022-11-12T02:18:09;2.70;99.90
11204;DHT22;5659;49.408;11.116;2022-11-12T02:20:37;2.60;99.90
11204;DHT22;5659;49.408;11.116;2022-11-12T02:23:04;2.60;99.90
11204;DHT22;5659;49.408;11.116;2022-11-12T02:25:30;2.70;99.90
11204;DHT22;5659;49.408;11.116;2022-11-12T02:27:57;2.70;99.90
11204;DHT22;5659;49.408;11.116;2022-11-12T02:30:44;2.80;99.90
11204;DHT22;5659;49.408;11.116;2022-11-12T02:33:10;2.70;99.90
11204;DHT22;5659;49.408;11.116;2022-11-12T02:35:35;2.70;99.90
11204;DHT22;5659;49.408;11.116;2022-11-12T02:38:01;2.70;99.90
11204;DHT22;5659;49.408;11.116;2022-11-12T02:40:26;2.70;99.90
11204;DHT22;5659;49.408;11.116;2022-11-12T02:42:52;2.70;99.90
11204;DHT22;5659;49.408;11.116;2022-11-12T02:45:18;2.70;99.90
11204;DHT22;5659;49.408;11.116;2022-11-12T02:47:44;2.70;99.90
11204;DHT22;5659;49.408;11.116;2022-11-12T02:50:10;2.70;99.90
11204;DHT22;5659;49.408;11.116;2022-11-12T02:55:08;2.90;99.90
11204;DHT22;5659;49.408;11.116;2022-11-12T03:02:29;2.90;99.90
11204;DHT22;5659;49.408;11.116;2022-11-12T03:04:55;3.00;99.90
11204;DHT22;5659;49.408;11.116;2022-11-12T03:07:20;2.90;99.90
11204;DHT22;5659;49.408;11.116;2022-11-12T03:09:46;2.70;99.90
11204;DHT22;5659;49.408;11.116;2022-11-12T03:12:11;2.60;99.90
11204;DHT22;5659;49.408;11.116;2022-11-12T03:14:37;2.60;99.90
11204;DHT22;5659;49.408;11.116;2022-11-12T03:17:03;2.50;99.90
11204;DHT22;5659;49.408;11.116;2022-11-12T03:19:29;2.40;99.90
11204;DHT22;5659;49.408;11.116;2022-11-12T03:21:54;2.40;99.90
11204;DHT22;5659;49.408;11.116;2022-11-12T03:38:56;2.50;99.90
11204;DHT22;5659;49.408;11.116;2022-11-12T03:41:21;2.40;99.90
11204;DHT22;5659;49.408;11.116;2022-11-12T03:43:47;2.20;99.90
11204;DHT22;5659;49.408;11.116;2022-11-12T03:46:12;2.30;99.90
11204;DHT22;5659;49.408;11.116;2022-11-12T03:48:38;2.20;99.90
11204;DHT22;5659;49.408;11.116;2022-11-12T03:51:03;2.20;99.90
11204;DHT22;5659;49.408;11.116;2022-11-12T03:53:29;2.30;99.90
11204;DHT22;5659;49.408;11.116;2022-11-12T03:55:54;2.00;99.90
11204;DHT22;5659;49.408;11.116;2022-11-12T03:58:20;1.90;99.90
11204;DHT22;5659;49.408;11.116;2022-11-12T04:00:46;1.80;99.90
11204;DHT22;5659;49.408;11.116;2022-11-12T04:03:11;1.90;99.90
11204;DHT22;5659;49.408;11.116;2022-11-12T04:05:37;1.90;99.90
11204;DHT22;5659;49.408;11.116;2022-11-12T04:11:09;1.80;99.90
11204;DHT22;5659;49.408;11.116;2022-11-12T04:13:37;1.80;99.90
11204;DHT22;5659;49.408;11.116;2022-11-12T04:16:13;1.70;99.90
11204;DHT22;5659;49.408;11.116;2022-11-12T04:18:59;1.70;99.90
11204;DHT22;5659;49.408;11.116;2022-11-12T04:21:57;1.50;99.90
11204;DHT22;5659;49.408;11.116;2022-11-12T04:24:32;1.40;99.90
11204;DHT22;5659;49.408;11.116;2022-11-12T04:29:51;1.30;99.90
11204;DHT22;5659;49.408;11.116;2022-11-12T04:32:37;1.20;99.90
11204;DHT22;5659;49.408;11.116;2022-11-12T04:35:05;1.20;99.90
11204;DHT22;5659;49.408;11.116;2022-11-12T04:37:32;1.20;99.90
11204;DHT22;5659;49.408;11.116;2022-11-12T04:40:20;1.00;99.90
11204;DHT22;5659;49.408;11.116;2022-11-12T04:43:07;1.00;99.90
11204;DHT22;5659;49.408;11.116;2022-11-12T04:45:52;0.90;99.90
11204;DHT22;5659;49.408;11.116;2022-11-12T04:48:19;0.90;99.90
11204;DHT22;5659;49.408;11.116;2022-11-12T04:50:48;1.10;99.90
11204;DHT22;5659;49.408;11.116;2022-11-12T04:53:14;0.90;99.90
11204;DHT22;5659;49.408;11.116;2022-11-12T04:55:40;0.80;99.90
11204;DHT22;5659;49.408;11.116;2022-11-12T04:58:05;0.80;99.90
11204;DHT22;5659;49.408;11.116;2022-11-12T05:00:31;0.80;99.90
11204;DHT22;5659;49.408;11.116;2022-11-12T05:02:57;0.80;99.90
11204;DHT22;5659;49.408;11.116;2022-11-12T05:05:25;0.80;99.90
11204;DHT22;5659;49.408;11.116;2022-11-12T05:07:50;0.60;99.90
11204;DHT22;5659;49.408;11.116;2022-11-12T05:10:16;0.70;99.90
11204;DHT22;5659;49.408;11.116;2022-11-12T05:12:43;0.70;99.90
11204;DHT22;5659;49.408;11.116;2022-11-12T05:15:09;0.70;99.90
11204;DHT22;5659;49.408;11.116;2022-11-12T05:17:40;0.80;99.90
11204;DHT22;5659;49.408;11.116;2022-11-12T05:20:06;0.80;99.90
11204;DHT22;5659;49.408;11.116;2022-11-12T05:22:32;0.90;99.90
11204;DHT22;5659;49.408;11.116;2022-11-12T05:24:58;0.80;99.90
11204;DHT22;5659;49.408;11.116;2022-11-12T05:27:23;0.70;99.90
11204;DHT22;5659;49.408;11.116;2022-11-12T05:29:49;0.70;99.90
11204;DHT22;5659;49.408;11.116;2022-11-12T05:32:15;0.60;99.90
11204;DHT22;5659;49.408;11.116;2022-11-12T05:34:41;0.60;99.90
11204;DHT22;5659;49.408;11.116;2022-11-12T05:37:08;0.50;99.90
11204;DHT22;5659;49.408;11.116;2022-11-12T05:39:34;0.50;99.90
11204;DHT22;5659;49.408;11.116;2022-11-12T05:41:59;0.50;99.90
11204;DHT22;5659;49.408;11.116;2022-11-12T05:44:25;0.50;99.90
11204;DHT22;5659;49.408;11.116;2022-11-12T05:46:51;0.50;99.90
11204;DHT22;5659;49.408;11.116;2022-11-12T05:49:17;0.60;99.90
11204;DHT22;5659;49.408;11.116;2022-11-12T05:51:42;0.50;99.90
11204;DHT22;5659;49.408;11.116;2022-11-12T05:54:08;0.40;99.90
11204;DHT22;5659;49.408;11.116;2022-11-12T06:08:46;0.50;99.90
11204;DHT22;5659;49.408;11.116;2022-11-12T06:11:11;0.40;99.90
11204;DHT22;5659;49.408;11.116;2022-11-12T06:13:37;0.50;99.90
11204;DHT22;5659;49.408;11.116;2022-11-12T06:16:02;0.20;99.90
11204;DHT22;5659;49.408;11.116;2022-11-12T06:18:28;0.30;99.90
11204;DHT22;5659;49.408;11.116;2022-11-12T06:20:59;0.10;99.90
11204;DHT22;5659;49.408;11.116;2022-11-12T06:23:43;-0.10;99.90
11204;DHT22;5659;49.408;11.116;2022-11-12T06:26:09;0.10;99.90
11204;DHT22;5659;49.408;11.116;2022-11-12T06:31:00;0.20;99.90
11204;DHT22;5659;49.408;11.116;2022-11-12T06:35:56;0.20;99.90
11204;DHT22;5659;49.408;11.116;2022-11-12T06:38:22;0.20;99.90
11204;DHT22;5659;49.408;11.116;2022-11-12T06:40:48;0.10;99.90
11204;DHT22;5659;49.408;11.116;2022-11-12T06:43:14;0.10;99.90
11204;DHT22;5659;49.408;11.116;2022-11-12T06:45:39;0.20;99.90
11204;DHT22;5659;49.408;11.116;2022-11-12T06:48:05;0.20;99.90
11204;DHT22;5659;49.408;11.116;2022-11-12T06:50:30;0.20;99.90
11204;DHT22;5659;49.408;11.116;2022-11-12T06:52:59;0.20;99.90
11204;DHT22;5659;49.408;11.116;2022-11-12T06:55:24;0.20;99.90
11204;DHT22;5659;49.408;11.116;2022-11-12T06:57:51;0.30;99.90
11204;DHT22;5659;49.408;11.116;2022-11-12T07:00:18;0.30;99.90
11204;DHT22;5659;49.408;11.116;2022-11-12T07:02:43;0.50;99.90
11204;DHT22;5659;49.408;11.116;2022-11-12T07:05:09;0.60;99.90
11204;DHT22;5659;49.408;11.116;2022-11-12T07:07:35;0.70;99.90
11204;DHT22;5659;49.408;11.116;2022-11-12T07:14:52;1.10;99.90
11204;DHT22;5659;49.408;11.116;2022-11-12T07:17:18;1.10;99.90
11204;DHT22;5659;49.408;11.116;2022-11-12T07:19:44;1.20;99.90
11204;DHT22;5659;49.408;11.116;2022-11-12T07:22:09;1.10;99.90
11204;DHT22;5659;49.408;11.116;2022-11-12T07:24:35;1.20;99.90
11204;DHT22;5659;49.408;11.116;2022-11-12T07:27:00;1.30;99.90
11204;DHT22;5659;49.408;11.116;2022-11-12T07:29:26;2.00;99.90
11204;DHT22;5659;49.408;11.116;2022-11-12T07:31:51;1.50;99.90
11204;DHT22;5659;49.408;11.116;2022-11-12T07:34:17;1.70;99.90
11204;DHT22;5659;49.408;11.116;2022-11-12T07:36:42;1.80;99.90
11204;DHT22;5659;49.408;11.116;2022-11-12T07:39:08;1.90;99.90
11204;DHT22;5659;49.408;11.116;2022-11-12T07:41:33;1.90;99.90
11204;DHT22;5659;49.408;11.116;2022-11-12T07:43:59;2.00;99.90
11204;DHT22;5659;49.408;11.116;2022-11-12T07:46:26;2.20;99.90
11204;DHT22;5659;49.408;11.116;2022-11-12T07:48:52;2.40;99.90
11204;DHT22;5659;49.408;11.116;2022-11-12T07:51:23;2.40;99.90
11204;DHT22;5659;49.408;11.116;2022-11-12T07:53:51;2.60;99.90
11204;DHT22;5659;49.408;11.116;2022-11-12T07:56:19;2.60;99.90
11204;DHT22;5659;49.408;11.116;2022-11-12T07:58:45;2.70;99.90
11204;DHT22;5659;49.408;11.116;2022-11-12T08:01:39;3.10;99.90
11204;DHT22;5659;49.408;11.116;2022-11-12T08:04:07;3.30;99.90
11204;DHT22;5659;49.408;11.116;2022-11-12T08:31:04;4.80;99.90
11204;DHT22;5659;49.408;11.116;2022-11-12T08:33:30;4.90;99.90
11204;DHT22;5659;49.408;11.116;2022-11-12T08:35:56;4.80;99.90
11204;DHT22;5659;49.408;11.116;2022-11-12T08:38:22;4.80;99.90
11204;DHT22;5659;49.408;11.116;2022-11-12T08:40:47;4.90;99.90
11204;DHT22;5659;49.408;11.116;2022-11-12T08:43:13;5.00;99.90
11204;DHT22;5659;49.408;11.116;2022-11-12T08:45:40;5.20;99.90
11204;DHT22;5659;49.408;11.116;2022-11-12T08:48:12;5.30;99.90
11204;DHT22;5659;49.408;11.116;2022-11-12T08:50:39;5.60;99.90
11204;DHT22;5659;49.408;11.116;2022-11-12T08:53:10;5.70;99.90
11204;DHT22;5659;49.408;11.116;2022-11-12T08:55:36;6.00;99.90
11204;DHT22;5659;49.408;11.116;2022-11-12T08:58:02;6.00;99.90
11204;DHT22;5659;49.408;11.116;2022-11-12T09:00:34;6.20;99.90
11204;DHT22;5659;49.408;11.116;2022-11-12T09:03:04;6.20;99.90
11204;DHT22;5659;49.408;11.116;2022-11-12T09:05:31;6.30;99.90
11204;DHT22;5659;49.408;11.116;2022-11-12T09:08:05;6.30;99.90
11204;DHT22;5659;49.408;11.116;2022-11-12T09:10:32;6.70;99.90
11204;DHT22;5659;49.408;11.116;2022-11-12T09:12:57;6.80;99.90
11204;DHT22;5659;49.408;11.116;2022-11-12T09:15:24;7.10;99.90
11204;DHT22;5659;49.408;11.116;2022-11-12T09:17:57;7.60;99.90
11204;DHT22;5659;49.408;11.116;2022-11-12T09:25:16;9.80;99.90
11204;DHT22;5659;49.408;11.116;2022-11-12T09:27:41;9.90;99.90
11204;DHT22;5659;49.408;11.116;2022-11-12T09:30:07;9.90;99.90
11204;DHT22;5659;49.408;11.116;2022-11-12T09:32:33;10.40;99.90
11204;DHT22;5659;49.408;11.116;2022-11-12T09:34:58;11.20;99.90
11204;DHT22;5659;49.408;11.116;2022-11-12T09:37:24;11.10;99.90
11204;DHT22;5659;49.408;11.116;2022-11-12T09:39:49;11.20;99.90
11204;DHT22;5659;49.408;11.116;2022-11-12T09:42:17;11.50;99.90
11204;DHT22;5659;49.408;11.116;2022-11-12T09:44:55;11.40;99.90
11204;DHT22;5659;49.408;11.116;2022-11-12T09:47:33;11.30;99.90
11204;DHT22;5659;49.408;11.116;2022-11-12T09:52:47;11.80;99.90
11204;DHT22;5659;49.408;11.116;2022-11-12T09:57:42;12.60;99.90
11204;DHT22;5659;49.408;11.116;2022-11-12T10:00:16;13.40;99.90
11204;DHT22;5659;49.408;11.116;2022-11-12T10:17:15;13.50;99.90
11204;DHT22;5659;49.408;11.116;2022-11-12T10:20:21;13.30;99.90
11204;DHT22;5659;49.408;11.116;2022-11-12T10:26:10;13.10;99.90
11204;DHT22;5659;49.408;11.116;2022-11-12T10:32:02;12.30;99.90
11204;DHT22;5659;49.408;11.116;2022-11-12T10:34:28;11.90;99.90
11204;DHT22;5659;49.408;11.116;2022-11-12T10:37:28;12.00;99.90
11204;DHT22;5659;49.408;11.116;2022-11-12T10:39:58;11.70;99.90
11204;DHT22;5659;49.408;11.116;2022-11-12T10:42:23;11.80;99.90
11204;DHT22;5659;49.408;11.116;2022-11-12T10:44:49;11.50;99.90
11204;DHT22;5659;49.408;11.116;2022-11-12T10:47:24;11.60;99.90
11204;DHT22;5659;49.408;11.116;2022-11-12T10:52:34;12.10;99.90
11204;DHT22;5659;49.408;11.116;2022-11-12T10:55:18;12.10;99.90
11204;DHT22;5659;49.408;11.116;2022-11-12T10:57:43;13.00;99.90
11204;DHT22;5659;49.408;11.116;2022-11-12T11:02:51;12.40;99.90
11204;DHT22;5659;49.408;11.116;2022-11-12T11:05:36;12.40;99.90
11204;DHT22;5659;49.408;11.116;2022-11-12T11:08:03;12.60;99.90
11204;DHT22;5659;49.408;11.116;2022-11-12T11:10:32;12.70;99.90
11204;DHT22;5659;49.408;11.116;2022-11-12T11:13:21;12.90;99.90
11204;DHT22;5659;49.408;11.116;2022-11-12T11:16:01;13.30;99.90
11204;DHT22;5659;49.408;11.116;2022-11-12T11:18:30;13.70;99.90
11204;DHT22;5659;49.408;11.116;2022-11-12T11:23:52;13.50;99.90
11204;DHT22;5659;49.408;11.116;2022-11-12T11:26:49;14.00;99.90
11204;DHT22;5659;49.408;11.116;2022-11-12T11:44:16;14.00;99.90
11204;DHT22;5659;49.408;11.116;2022-11-12T11:47:05;14.20;99.90
11204;DHT22;5659;49.408;11.116;2022-11-12T11:52:40;14.80;99.90
11204;DHT22;5659;49.408;11.116;2022-11-12T11:55:27;15.20;99.90
11204;DHT22;5659;49.408;11.116;2022-11-12T11:58:03;14.90;99.90
11204;DHT22;5659;49.408;11.116;2022-11-12T12:03:35;15.90;99.90
11204;DHT22;5659;49.408;11.116;2022-11-12T12:06:27;16.10;99.90
11204;DHT22;5659;49.408;11.116;2022-11-12T12:09:08;16.00;99.90
11204;DHT22;5659;49.408;11.116;2022-11-12T12:11:52;16.20;99.90
11204;DHT22;5659;49.408;11.116;2022-11-12T12:14:29;16.20;99.90
11204;DHT22;5659;49.408;11.116;2022-11-12T12:20:17;15.50;99.90
11204;DHT22;5659;49.408;11.116;2022-11-12T12:22:59;15.30;99.90
11204;DHT22;5659;49.408;11.116;2022-11-12T12:25:33;15.50;99.90
11204;DHT22;5659;49.408;11.116;2022-11-12T12:28:33;15.80;99.90
11204;DHT22;5659;49.408;11.116;2022-11-12T12:31:08;15.50;99.90
11204;DHT22;5659;49.408;11.116;2022-11-12T12:33:49;15.30;99.90
11204;DHT22;5659;49.408;11.116;2022-11-12T12:36:22;15.20;99.90
11204;DHT22;5659;49.408;11.116;2022-11-12T12:41:25;15.10;99.90
11204;DHT22;5659;49.408;11.116;2022-11-12T12:44:04;15.00;99.90
11204;DHT22;5659;49.408;11.116;2022-11-12T12:46:33;15.10;99.90
11204;DHT22;5659;49.408;11.116;2022-11-12T12:49:02;15.10;99.90
11204;DHT22;5659;49.408;11.116;2022-11-12T12:51:30;14.90;99.90
11204;DHT22;5659;49.408;11.116;2022-11-12T12:53:57;15.00;99.90
11204;DHT22;5659;49.408;11.116;2022-11-12T12:58:52;15.10;99.90
11204;DHT22;5659;49.408;11.116;2022-11-12T13:17:45;16.00;99.90
11204;DHT22;5659;49.408;11.116;2022-11-12T13:20:17;16.10;99.90
11204;DHT22;5659;49.408;11.116;2022-11-12T13:22:51;15.80;99.90
11204;DHT22;5659;49.408;11.116;2022-11-12T13:51:36;14.10;99.90
11204;DHT22;5659;49.408;11.116;2022-11-12T13:54:29;13.80;99.90
11204;DHT22;5659;49.408;11.116;2022-11-12T13:56:55;13.70;99.90
11204;DHT22;5659;49.408;11.116;2022-11-12T13:59:23;13.60;99.90
11204;DHT22;5659;49.408;11.116;2022-11-12T14:01:50;13.60;99.90
11204;DHT22;5659;49.408;11.116;2022-11-12T14:04:18;13.40;99.90
11204;DHT22;5659;49.408;11.116;2022-11-12T14:06:51;13.30;99.90
11204;DHT22;5659;49.408;11.116;2022-11-12T14:09:37;13.20;99.90
11204;DHT22;5659;49.408;11.116;2022-11-12T14:20:28;12.80;99.90
11204;DHT22;5659;49.408;11.116;2022-11-12T14:23:03;12.80;99.90
11204;DHT22;5659;49.408;11.116;2022-11-12T14:25:33;12.90;99.90
11204;DHT22;5659;49.408;11.116;2022-11-12T14:27:59;12.70;99.90
11204;DHT22;5659;49.408;11.116;2022-11-12T14:30:26;12.40;99.90
11204;DHT22;5659;49.408;11.116;2022-11-12T14:32:59;12.20;99.90
11204;DHT22;5659;49.408;11.116;2022-11-12T14:35:34;12.00;99.90
11204;DHT22;5659;49.408;11.116;2022-11-12T14:40:35;12.00;99.90
11204;DHT22;5659;49.408;11.116;2022-11-12T15:05:30;9.90;99.90
11204;DHT22;5659;49.408;11.116;2022-11-12T15:07:59;9.80;99.90
11204;DHT22;5659;49.408;11.116;2022-11-12T15:10:42;9.50;99.90
11204;DHT22;5659;49.408;11.116;2022-11-12T16:16:05;6.00;99.90
11204;DHT22;5659;49.408;11.116;2022-11-12T16:18:32;6.60;99.90
11204;DHT22;5659;49.408;11.116;2022-11-12T17:07:32;5.20;99.90
11204;DHT22;5659;49.408;11.116;2022-11-12T17:09:58;5.10;99.90
11204;DHT22;5659;49.408;11.116;2022-11-12T17:12:24;5.00;99.90
11204;DHT22;5659;49.408;11.116;2022-11-12T17:14:49;4.90;99.90
11204;DHT22;5659;49.408;11.116;2022-11-12T17:17:15;4.80;99.90
11204;DHT22;5659;49.408;11.116;2022-11-12T17:19:41;4.70;99.90
11204;DHT22;5659;49.408;11.116;2022-11-12T17:31:51;4.70;99.90
11204;DHT22;5659;49.408;11.116;2022-11-12T17:34:17;4.70;99.90
11204;DHT22;5659;49.408;11.116;2022-11-12T17:36:42;4.60;99.90
11204;DHT22;5659;49.408;11.116;2022-11-12T17:39:09;4.50;99.90
11204;DHT22;5659;49.408;11.116;2022-11-12T17:41:35;4.50;99.90
11204;DHT22;5659;49.408;11.116;2022-11-12T17:53:46;4.90;99.90
11204;DHT22;5659;49.408;11.116;2022-11-12T17:56:15;4.80;99.90
11204;DHT22;5659;49.408;11.116;2022-11-12T17:58:41;4.40;99.90
11204;DHT22;5659;49.408;11.116;2022-11-12T18:01:16;4.20;99.90
11204;DHT22;5659;49.408;11.116;2022-11-12T18:03:43;4.20;99.90
11204;DHT22;5659;49.408;11.116;2022-11-12T18:06:11;4.00;99.90
11204;DHT22;5659;49.408;11.116;2022-11-12T18:08:38;4.00;99.90
11204;DHT22;5659;49.408;11.116;2022-11-12T18:11:04;4.00;99.90
11204;DHT22;5659;49.408;11.116;2022-11-12T18:13:29;4.00;99.90
11204;DHT22;5659;49.408;11.116;2022-11-12T18:15:55;3.90;99.90
11204;DHT22;5659;49.408;11.116;2022-11-12T18:32:57;4.10;99.90
11204;DHT22;5659;49.408;11.116;2022-11-12T18:35:22;3.90;99.90
11204;DHT22;5659;49.408;11.116;2022-11-12T18:37:48;3.80;99.90
11204;DHT22;5659;49.408;11.116;2022-11-12T18:40:14;3.70;99.90
11204;DHT22;5659;49.408;11.116;2022-11-12T18:42:40;3.70;99.90
11204;DHT22;5659;49.408;11.116;2022-11-12T18:45:06;3.60;99.90
11204;DHT22;5659;49.408;11.116;2022-11-12T18:49:58;3.80;99.90
11204;DHT22;5659;49.408;11.116;2022-11-12T18:52:23;3.80;99.90
11204;DHT22;5659;49.408;11.116;2022-11-12T18:54:49;3.70;99.90
11204;DHT22;5659;49.408;11.116;2022-11-12T18:57:14;3.60;99.90
11204;DHT22;5659;49.408;11.116;2022-11-12T18:59:40;3.50;99.90
11204;DHT22;5659;49.408;11.116;2022-11-12T19:02:07;3.40;99.90
11204;DHT22;5659;49.408;11.116;2022-11-12T19:04:33;3.40;99.90
11204;DHT22;5659;49.408;11.116;2022-11-12T19:06:59;3.10;99.90
11204;DHT22;5659;49.408;11.116;2022-11-12T19:09:24;3.20;99.90
11204;DHT22;5659;49.408;11.116;2022-11-12T19:11:50;3.10;99.90
11204;DHT22;5659;49.408;11.116;2022-11-12T19:14:15;3.00;99.90
11204;DHT22;5659;49.408;11.116;2022-11-12T19:16:41;3.10;99.90
11204;DHT22;5659;49.408;11.116;2022-11-12T19:19:12;3.10;99.90
11204;DHT22;5659;49.408;11.116;2022-11-12T19:21:39;3.30;99.90
11204;DHT22;5659;49.408;11.116;2022-11-12T19:24:05;3.20;99.90
11204;DHT22;5659;49.408;11.116;2022-11-12T19:26:31;3.30;99.90
11204;DHT22;5659;49.408;11.116;2022-11-12T19:28:56;3.10;99.90
11204;DHT22;5659;49.408;11.116;2022-11-12T19:31:23;3.00;99.90
11204;DHT22;5659;49.408;11.116;2022-11-12T19:33:49;3.20;99.90
11204;DHT22;5659;49.408;11.116;2022-11-12T19:36:17;3.10;99.90
11204;DHT22;5659;49.408;11.116;2022-11-12T19:38:43;2.90;99.90
11204;DHT22;5659;49.408;11.116;2022-11-12T19:41:11;2.80;99.90
11204;DHT22;5659;49.408;11.116;2022-11-12T19:43:36;2.80;99.90
11204;DHT22;5659;49.408;11.116;2022-11-12T19:46:04;2.80;99.90
11204;DHT22;5659;49.408;11.116;2022-11-12T19:48:30;2.70;99.90
11204;DHT22;5659;49.408;11.116;2022-11-12T19:51:00;2.60;99.90
11204;DHT22;5659;49.408;11.116;2022-11-12T19:53:31;2.70;99.90
11204;DHT22;5659;49.408;11.116;2022-11-12T19:56:04;2.90;99.90
11204;DHT22;5659;49.408;11.116;2022-11-12T19:58:30;2.60;99.90
11204;DHT22;5659;49.408;11.116;2022-11-12T20:01:08;2.60;99.90
11204;DHT22;5659;49.408;11.116;2022-11-12T20:03:35;2.50;99.90
11204;DHT22;5659;49.408;11.116;2022-11-12T20:06:12;2.50;99.90
11204;DHT22;5659;49.408;11.116;2022-11-12T20:08:37;2.50;99.90
11204;DHT22;5659;49.408;11.116;2022-11-12T20:11:04;2.40;99.90
11204;DHT22;5659;49.408;11.116;2022-11-12T20:13:29;2.40;99.90
11204;DHT22;5659;49.408;11.116;2022-11-12T20:15:55;2.50;99.90
11204;DHT22;5659;49.408;11.116;2022-11-12T20:18:21;2.20;99.90
11204;DHT22;5659;49.408;11.116;2022-11-12T20:20:49;2.20;99.90
11204;DHT22;5659;49.408;11.116;2022-11-12T20:23:14;2.20;99.90
11204;DHT22;5659;49.408;11.116;2022-11-12T20:25:40;2.40;99.90
11204;DHT22;5659;49.408;11.116;2022-11-12T20:28:06;2.20;99.90
11204;DHT22;5659;49.408;11.116;2022-11-12T20:30:32;2.10;99.90
11204;DHT22;5659;49.408;11.116;2022-11-12T20:32:57;2.20;99.90
11204;DHT22;5659;49.408;11.116;2022-11-12T20:35:23;2.20;99.90
11204;DHT22;5659;49.408;11.116;2022-11-12T20:37:48;2.30;99.90
11204;DHT22;5659;49.408;11.116;2022-11-12T20:40:15;2.30;99.90
11204;DHT22;5659;49.408;11.116;2022-11-12T20:42:41;2.40;99.90
11204;DHT22;5659;49.408;11.116;2022-11-12T20:45:07;2.40;99.90
11204;DHT22;5659;49.408;11.116;2022-11-12T20:47:33;2.40;99.90
11204;DHT22;5659;49.408;11.116;2022-11-12T20:49:58;2.40;99.90
11204;DHT22;5659;49.408;11.116;2022-11-12T20:52:24;2.40;99.90
11204;DHT22;5659;49.408;11.116;2022-11-12T20:54:49;2.40;99.90
11204;DHT22;5659;49.408;11.116;2022-11-12T20:57:15;2.40;99.90
11204;DHT22;5659;49.408;11.116;2022-11-12T20:59:41;2.30;99.90
11204;DHT22;5659;49.408;11.116;2022-11-12T21:02:10;2.40;99.90
11204;DHT22;5659;49.408;11.116;2022-11-12T21:04:36;2.50;99.90
11204;DHT22;5659;49.408;11.116;2022-11-12T21:07:02;2.50;99.90
11204;DHT22;5659;49.408;11.116;2022-11-12T21:09:28;2.40;99.90
11204;DHT22;5659;49.408;11.116;2022-11-12T21:11:54;2.40;99.90
11204;DHT22;5659;49.408;11.116;2022-11-12T21:14:20;2.50;99.90
11204;DHT22;5659;49.408;11.116;2022-11-12T21:16:45;2.40;99.90
11204;DHT22;5659;49.408;11.116;2022-11-12T21:19:11;2.50;99.90
11204;DHT22;5659;49.408;11.116;2022-11-12T21:21:37;2.70;99.90
11204;DHT22;5659;49.408;11.116;2022-11-12T21:24:02;2.60;99.90
11204;DHT22;5659;49.408;11.116;2022-11-12T21:26:28;2.80;99.90
11204;DHT22;5659;49.408;11.116;2022-11-12T21:28:54;2.70;99.90
11204;DHT22;5659;49.408;11.116;2022-11-12T21:31:22;2.70;99.90
11204;DHT22;5659;49.408;11.116;2022-11-12T21:33:53;2.70;99.90
11204;DHT22;5659;49.408;11.116;2022-11-12T21:36:20;2.70;99.90
11204;DHT22;5659;49.408;11.116;2022-11-12T21:38:47;2.60;99.90
11204;DHT22;5659;49.408;11.116;2022-11-12T21:41:18;2.60;99.90
11204;DHT22;5659;49.408;11.116;2022-11-12T21:43:44;2.60;99.90
11204;DHT22;5659;49.408;11.116;2022-11-12T21:46:17;2.70;99.90
11204;DHT22;5659;49.408;11.116;2022-11-12T21:48:43;2.60;99.90
11204;DHT22;5659;49.408;11.116;2022-11-12T21:51:11;2.60;99.90
11204;DHT22;5659;49.408;11.116;2022-11-12T21:53:37;2.60;99.90
11204;DHT22;5659;49.408;11.116;2022-11-12T21:56:06;2.60;99.90
11204;DHT22;5659;49.408;11.116;2022-11-12T21:58:32;2.70;99.90
11204;DHT22;5659;49.408;11.116;2022-11-12T22:01:13;2.60;99.90
11204;DHT22;5659;49.408;11.116;2022-11-12T22:03:43;2.60;99.90
11204;DHT22;5659;49.408;11.116;2022-11-12T22:06:09;2.60;99.90
11204;DHT22;5659;49.408;11.116;2022-11-12T22:08:35;2.70;99.90
11204;DHT22;5659;49.408;11.116;2022-11-12T22:11:03;2.60;99.90
11204;DHT22;5659;49.408;11.116;2022-11-12T22:13:29;3.00;99.90
11204;DHT22;5659;49.408;11.116;2022-11-12T22:15:55;2.70;99.90
11204;DHT22;5659;49.408;11.116;2022-11-12T22:18:21;2.70;99.90